DLH3HT EKCH-EDDF
Flight info
| Callsign | DLH3HT |
|---|---|
| Flight time | 1h 8m |
| Altitude | 36000 |
| Route | NEXEN T503 GIMRU DCT MICOS DCT RIMET/N0448F310 T157 KOKEB/N0405F230 T157 KERAX KERAX5A |
| Aircraft | A320/M-SDE3FGHIRWY/LB1 |
Departure
| Time | 2026-05-07 15:11 |
|---|---|
| Airport | Copenhagen Kastrup Airport (EKCH) |
Arrival
| Time | 2026-05-07 16:20 |
|---|---|
| Airport | Frankfurt Main Airport (EDDF) |
| Time | Latitude | Longitude | Altitude | Speed | Heading |
|---|---|---|---|---|---|
| 2026-05-07 14:47 | 55.62765 | 12.64307 | 24 ft | 0 kts | 298° |
| 2026-05-07 14:59 | 55.62758 | 12.64332 | 24 ft | 2 kts | 296° |
| 2026-05-07 14:59 | 55.62747 | 12.64362 | 26 ft | 4 kts | 343° |
| 2026-05-07 14:59 | 55.62725 | 12.64357 | 27 ft | 3 kts | 27° |
| 2026-05-07 14:59 | 55.62706 | 12.64339 | 27 ft | 3 kts | 26° |
| 2026-05-07 15:00 | 55.62682 | 12.64322 | 25 ft | 3 kts | 20° |
| 2026-05-07 15:00 | 55.62662 | 12.64309 | 27 ft | 4 kts | 22° |
| 2026-05-07 15:00 | 55.62637 | 12.64290 | 28 ft | 4 kts | 28° |
| 2026-05-07 15:00 | 55.62615 | 12.64267 | 27 ft | 4 kts | 39° |
| 2026-05-07 15:01 | 55.62600 | 12.64232 | 27 ft | 4 kts | 85° |
| 2026-05-07 15:01 | 55.62605 | 12.64190 | 26 ft | 3 kts | 123° |
| 2026-05-07 15:01 | 55.62619 | 12.64151 | 26 ft | 4 kts | 123° |
| 2026-05-07 15:01 | 55.62630 | 12.64122 | 27 ft | 0 kts | 123° |
| 2026-05-07 15:04 | 55.62629 | 12.64126 | 26 ft | 2 kts | 123° |
| 2026-05-07 15:04 | 55.62612 | 12.64170 | 25 ft | 5 kts | 123° |
| 2026-05-07 15:04 | 55.62581 | 12.64211 | 24 ft | 6 kts | 169° |
| 2026-05-07 15:04 | 55.62541 | 12.64200 | 24 ft | 7 kts | 176° |
| 2026-05-07 15:05 | 55.62506 | 12.64258 | 24 ft | 8 kts | 125° |
| 2026-05-07 15:05 | 55.62469 | 12.64344 | 24 ft | 9 kts | 128° |
| 2026-05-07 15:05 | 55.62429 | 12.64431 | 24 ft | 9 kts | 135° |
| 2026-05-07 15:05 | 55.62372 | 12.64439 | 24 ft | 8 kts | 194° |
| 2026-05-07 15:06 | 55.62305 | 12.64408 | 23 ft | 12 kts | 195° |
| 2026-05-07 15:06 | 55.62212 | 12.64406 | 22 ft | 14 kts | 169° |
| 2026-05-07 15:06 | 55.62112 | 12.64438 | 23 ft | 15 kts | 169° |
| 2026-05-07 15:06 | 55.62012 | 12.64472 | 24 ft | 15 kts | 169° |
| 2026-05-07 15:07 | 55.61898 | 12.64509 | 24 ft | 18 kts | 169° |
| 2026-05-07 15:07 | 55.61767 | 12.64552 | 26 ft | 18 kts | 169° |
| 2026-05-07 15:07 | 55.61655 | 12.64538 | 24 ft | 16 kts | 206° |
| 2026-05-07 15:07 | 55.61555 | 12.64425 | 24 ft | 19 kts | 213° |
| 2026-05-07 15:08 | 55.61433 | 12.64286 | 24 ft | 21 kts | 213° |
| 2026-05-07 15:08 | 55.61314 | 12.64150 | 24 ft | 20 kts | 213° |
| 2026-05-07 15:08 | 55.61204 | 12.64022 | 26 ft | 19 kts | 213° |
| 2026-05-07 15:08 | 55.61097 | 12.63900 | 24 ft | 18 kts | 213° |
| 2026-05-07 15:09 | 55.60998 | 12.63786 | 24 ft | 16 kts | 213° |
| 2026-05-07 15:09 | 55.60906 | 12.63680 | 24 ft | 15 kts | 213° |
| 2026-05-07 15:09 | 55.60821 | 12.63593 | 25 ft | 12 kts | 194° |
| 2026-05-07 15:09 | 55.60757 | 12.63661 | 24 ft | 11 kts | 131° |
| 2026-05-07 15:10 | 55.60699 | 12.63778 | 24 ft | 12 kts | 130° |
| 2026-05-07 15:10 | 55.60672 | 12.63854 | 26 ft | 3 kts | 88° |
| 2026-05-07 15:10 | 55.60697 | 12.63899 | 26 ft | 6 kts | 41° |
| 2026-05-07 15:10 | 55.60782 | 12.64031 | 26 ft | 42 kts | 41° |
| 2026-05-07 15:11 | 55.61197 | 12.64673 | 24 ft | 112 kts | 41° |
| 2026-05-07 15:11 | 55.61923 | 12.65794 | 102 ft | 157 kts | 38° |
| 2026-05-07 15:11 | 55.62731 | 12.67066 | 916 ft | 153 kts | 39° |
| 2026-05-07 15:11 | 55.63527 | 12.68338 | 1691 ft | 160 kts | 38° |
| 2026-05-07 15:12 | 55.64415 | 12.69716 | 2162 ft | 178 kts | 39° |
| 2026-05-07 15:12 | 55.65375 | 12.71176 | 2680 ft | 191 kts | 38° |
| 2026-05-07 15:12 | 55.66453 | 12.72792 | 3132 ft | 215 kts | 38° |
| 2026-05-07 15:12 | 55.67645 | 12.74571 | 3739 ft | 233 kts | 38° |
| 2026-05-07 15:13 | 55.68864 | 12.76623 | 4432 ft | 251 kts | 51° |
| 2026-05-07 15:13 | 55.69597 | 12.79485 | 5330 ft | 261 kts | 77° |
| 2026-05-07 15:13 | 55.69623 | 12.82713 | 6361 ft | 266 kts | 99° |
| 2026-05-07 15:13 | 55.68967 | 12.85809 | 7260 ft | 274 kts | 121° |
| 2026-05-07 15:14 | 55.67634 | 12.88244 | 8217 ft | 280 kts | 145° |
| 2026-05-07 15:14 | 55.65878 | 12.89688 | 9141 ft | 286 kts | 158° |
| 2026-05-07 15:14 | 55.63929 | 12.90481 | 10056 ft | 292 kts | 177° |
| 2026-05-07 15:14 | 55.61896 | 12.89907 | 10697 ft | 308 kts | 201° |
| 2026-05-07 15:15 | 55.60059 | 12.87740 | 10995 ft | 331 kts | 222° |
| 2026-05-07 15:15 | 55.58316 | 12.84883 | 11377 ft | 350 kts | 223° |
| 2026-05-07 15:15 | 55.56524 | 12.81911 | 12105 ft | 356 kts | 223° |
| 2026-05-07 15:15 | 55.54709 | 12.78910 | 12949 ft | 358 kts | 223° |
| 2026-05-07 15:16 | 55.52880 | 12.75908 | 13795 ft | 361 kts | 223° |
| 2026-05-07 15:16 | 55.51053 | 12.72935 | 14540 ft | 363 kts | 223° |
| 2026-05-07 15:16 | 55.49182 | 12.69910 | 15260 ft | 366 kts | 223° |
| 2026-05-07 15:16 | 55.47294 | 12.66867 | 15965 ft | 369 kts | 223° |
| 2026-05-07 15:17 | 55.45390 | 12.63801 | 16657 ft | 373 kts | 223° |
| 2026-05-07 15:17 | 55.43466 | 12.60707 | 17332 ft | 376 kts | 223° |
| 2026-05-07 15:17 | 55.41524 | 12.57585 | 18009 ft | 380 kts | 223° |
| 2026-05-07 15:17 | 55.39567 | 12.54442 | 18643 ft | 383 kts | 223° |
| 2026-05-07 15:18 | 55.37588 | 12.51270 | 19199 ft | 386 kts | 223° |
| 2026-05-07 15:18 | 55.35621 | 12.48119 | 19747 ft | 389 kts | 223° |
| 2026-05-07 15:18 | 55.33614 | 12.44908 | 20305 ft | 393 kts | 223° |
| 2026-05-07 15:18 | 55.31585 | 12.41668 | 20852 ft | 396 kts | 223° |
| 2026-05-07 15:19 | 55.29538 | 12.38405 | 21387 ft | 399 kts | 223° |
| 2026-05-07 15:19 | 55.27473 | 12.35116 | 21924 ft | 402 kts | 223° |
| 2026-05-07 15:19 | 55.25395 | 12.31808 | 22440 ft | 405 kts | 223° |
| 2026-05-07 15:19 | 55.23295 | 12.28474 | 22966 ft | 409 kts | 223° |
| 2026-05-07 15:20 | 55.21178 | 12.25122 | 23474 ft | 412 kts | 223° |
| 2026-05-07 15:20 | 55.19766 | 12.22892 | 23787 ft | 414 kts | 223° |
| 2026-05-07 15:20 | 55.17625 | 12.19512 | 24195 ft | 417 kts | 223° |
| 2026-05-07 15:20 | 55.14758 | 12.14996 | 24741 ft | 421 kts | 223° |
| 2026-05-07 15:21 | 55.12571 | 12.11555 | 25134 ft | 424 kts | 223° |
| 2026-05-07 15:21 | 55.10372 | 12.08094 | 25511 ft | 427 kts | 223° |
| 2026-05-07 15:21 | 55.08158 | 12.04616 | 25910 ft | 430 kts | 222° |
| 2026-05-07 15:21 | 55.05928 | 12.01126 | 26295 ft | 432 kts | 222° |
| 2026-05-07 15:22 | 55.04441 | 11.98802 | 26559 ft | 434 kts | 222° |
| 2026-05-07 15:22 | 55.02186 | 11.95277 | 26942 ft | 437 kts | 222° |
| 2026-05-07 15:22 | 54.99175 | 11.90573 | 27442 ft | 441 kts | 222° |
| 2026-05-07 15:22 | 54.96889 | 11.87008 | 27796 ft | 443 kts | 222° |
| 2026-05-07 15:23 | 54.95330 | 11.84584 | 28046 ft | 445 kts | 222° |
| 2026-05-07 15:23 | 54.93044 | 11.81037 | 28403 ft | 447 kts | 222° |
| 2026-05-07 15:23 | 54.90714 | 11.77428 | 28729 ft | 450 kts | 222° |
| 2026-05-07 15:23 | 54.88371 | 11.73803 | 29049 ft | 453 kts | 222° |
| 2026-05-07 15:24 | 54.86011 | 11.70148 | 29341 ft | 456 kts | 222° |
| 2026-05-07 15:24 | 54.83639 | 11.66479 | 29660 ft | 459 kts | 222° |
| 2026-05-07 15:24 | 54.81238 | 11.62812 | 29972 ft | 461 kts | 219° |
| 2026-05-07 15:24 | 54.78660 | 11.59491 | 30310 ft | 462 kts | 216° |
| 2026-05-07 15:25 | 54.76054 | 11.56242 | 30712 ft | 461 kts | 216° |
| 2026-05-07 15:25 | 54.73456 | 11.53006 | 31093 ft | 460 kts | 216° |
| 2026-05-07 15:25 | 54.70894 | 11.49816 | 31471 ft | 459 kts | 216° |
| 2026-05-07 15:25 | 54.68305 | 11.46598 | 31862 ft | 459 kts | 216° |
| 2026-05-07 15:26 | 54.65711 | 11.43378 | 32242 ft | 458 kts | 216° |
| 2026-05-07 15:26 | 54.63123 | 11.40172 | 32624 ft | 458 kts | 216° |
| 2026-05-07 15:26 | 54.60537 | 11.36975 | 33001 ft | 457 kts | 216° |
| 2026-05-07 15:26 | 54.57949 | 11.33784 | 33370 ft | 457 kts | 216° |
| 2026-05-07 15:27 | 54.55366 | 11.30601 | 33744 ft | 457 kts | 216° |
| 2026-05-07 15:27 | 54.52777 | 11.27427 | 34104 ft | 456 kts | 216° |
| 2026-05-07 15:27 | 54.50190 | 11.24272 | 34420 ft | 456 kts | 215° |
| 2026-05-07 15:27 | 54.47637 | 11.21168 | 34756 ft | 455 kts | 215° |
| 2026-05-07 15:28 | 54.45055 | 11.18039 | 35129 ft | 453 kts | 215° |
| 2026-05-07 15:28 | 54.42485 | 11.14930 | 35500 ft | 451 kts | 215° |
| 2026-05-07 15:28 | 54.39931 | 11.11841 | 35851 ft | 449 kts | 215° |
| 2026-05-07 15:28 | 54.37377 | 11.08759 | 36078 ft | 448 kts | 215° |
| 2026-05-07 15:29 | 54.32217 | 11.02834 | 36122 ft | 446 kts | 208° |
| 2026-05-07 15:29 | 54.26383 | 10.99341 | 36116 ft | 447 kts | 190° |
| 2026-05-07 15:30 | 54.20294 | 10.97632 | 36113 ft | 447 kts | 190° |
| 2026-05-07 15:30 | 54.14156 | 10.95906 | 36112 ft | 446 kts | 190° |
| 2026-05-07 15:31 | 54.08028 | 10.94181 | 36109 ft | 446 kts | 190° |
| 2026-05-07 15:31 | 54.01896 | 10.92462 | 36109 ft | 446 kts | 190° |
| 2026-05-07 15:32 | 53.95807 | 10.90767 | 36112 ft | 446 kts | 190° |
| 2026-05-07 15:32 | 53.89675 | 10.89063 | 36113 ft | 446 kts | 190° |
| 2026-05-07 15:33 | 53.83547 | 10.87357 | 36113 ft | 446 kts | 190° |
| 2026-05-07 15:33 | 53.77415 | 10.85655 | 36111 ft | 446 kts | 190° |
| 2026-05-07 15:34 | 53.71330 | 10.83972 | 36111 ft | 446 kts | 190° |
| 2026-05-07 15:34 | 53.65201 | 10.82284 | 36107 ft | 446 kts | 189° |
| 2026-05-07 15:35 | 53.59069 | 10.80614 | 36099 ft | 446 kts | 190° |
| 2026-05-07 15:35 | 53.52943 | 10.78939 | 36088 ft | 446 kts | 190° |
| 2026-05-07 15:36 | 53.46859 | 10.77280 | 36079 ft | 446 kts | 189° |
| 2026-05-07 15:36 | 53.40727 | 10.75616 | 36079 ft | 446 kts | 190° |
| 2026-05-07 15:37 | 53.34595 | 10.73953 | 36075 ft | 446 kts | 190° |
| 2026-05-07 15:37 | 53.28468 | 10.72293 | 36075 ft | 446 kts | 190° |
| 2026-05-07 15:38 | 53.22336 | 10.70636 | 36072 ft | 446 kts | 189° |
| 2026-05-07 15:38 | 53.16250 | 10.69005 | 36071 ft | 446 kts | 189° |
| 2026-05-07 15:39 | 53.10120 | 10.67362 | 36072 ft | 446 kts | 189° |
| 2026-05-07 15:39 | 53.03986 | 10.65722 | 36075 ft | 446 kts | 189° |
| 2026-05-07 15:40 | 52.97858 | 10.64098 | 36071 ft | 447 kts | 189° |
| 2026-05-07 15:40 | 52.91758 | 10.62478 | 36072 ft | 447 kts | 189° |
| 2026-05-07 15:41 | 52.85621 | 10.60845 | 36074 ft | 447 kts | 189° |
| 2026-05-07 15:41 | 52.79476 | 10.59215 | 36072 ft | 447 kts | 189° |
| 2026-05-07 15:42 | 52.73330 | 10.57599 | 36075 ft | 447 kts | 189° |
| 2026-05-07 15:42 | 52.67218 | 10.56006 | 36078 ft | 448 kts | 189° |
| 2026-05-07 15:43 | 52.61062 | 10.54395 | 36080 ft | 448 kts | 189° |
| 2026-05-07 15:43 | 52.54911 | 10.52779 | 36084 ft | 448 kts | 189° |
| 2026-05-07 15:44 | 52.48757 | 10.51168 | 36086 ft | 448 kts | 189° |
| 2026-05-07 15:44 | 52.42644 | 10.49591 | 36083 ft | 448 kts | 189° |
| 2026-05-07 15:45 | 52.36490 | 10.48010 | 36082 ft | 448 kts | 189° |
| 2026-05-07 15:45 | 52.30340 | 10.46425 | 36078 ft | 447 kts | 189° |
| 2026-05-07 15:46 | 52.21126 | 10.44037 | 36076 ft | 447 kts | 189° |
| 2026-05-07 15:47 | 52.14985 | 10.42459 | 36075 ft | 447 kts | 189° |
| 2026-05-07 15:47 | 52.08882 | 10.40901 | 36075 ft | 447 kts | 189° |
| 2026-05-07 15:48 | 52.02736 | 10.39339 | 36079 ft | 447 kts | 189° |
| 2026-05-07 15:48 | 51.96589 | 10.37773 | 36078 ft | 447 kts | 189° |
| 2026-05-07 15:49 | 51.90445 | 10.36215 | 36080 ft | 447 kts | 189° |
| 2026-05-07 15:49 | 51.84333 | 10.34678 | 36078 ft | 448 kts | 189° |
| 2026-05-07 15:50 | 51.78179 | 10.33125 | 36078 ft | 448 kts | 189° |
| 2026-05-07 15:50 | 51.72011 | 10.31562 | 36082 ft | 449 kts | 189° |
| 2026-05-07 15:51 | 51.65848 | 10.30011 | 36072 ft | 449 kts | 189° |
| 2026-05-07 15:51 | 51.59711 | 10.28484 | 36077 ft | 449 kts | 189° |
| 2026-05-07 15:52 | 51.53536 | 10.26951 | 36073 ft | 449 kts | 189° |
| 2026-05-07 15:52 | 51.47358 | 10.25407 | 36068 ft | 449 kts | 189° |
| 2026-05-07 15:53 | 51.41178 | 10.23874 | 36070 ft | 449 kts | 189° |
| 2026-05-07 15:53 | 51.34996 | 10.22351 | 36067 ft | 449 kts | 189° |
| 2026-05-07 15:54 | 51.28795 | 10.21858 | 36056 ft | 451 kts | 181° |
| 2026-05-07 15:54 | 51.22518 | 10.21742 | 36067 ft | 451 kts | 181° |
| 2026-05-07 15:55 | 51.16243 | 10.21608 | 36062 ft | 451 kts | 181° |
| 2026-05-07 15:55 | 51.09968 | 10.21474 | 36065 ft | 451 kts | 181° |
| 2026-05-07 15:56 | 51.03740 | 10.21362 | 36059 ft | 451 kts | 181° |
| 2026-05-07 15:56 | 51.00611 | 10.21307 | 35845 ft | 449 kts | 181° |
| 2026-05-07 15:56 | 50.97486 | 10.21252 | 35132 ft | 449 kts | 181° |
| 2026-05-07 15:56 | 50.94354 | 10.21199 | 34406 ft | 450 kts | 181° |
| 2026-05-07 15:57 | 50.91217 | 10.21144 | 33609 ft | 452 kts | 181° |
| 2026-05-07 15:57 | 50.88075 | 10.21086 | 32755 ft | 452 kts | 182° |
| 2026-05-07 15:57 | 50.84975 | 10.20440 | 31951 ft | 449 kts | 198° |
| 2026-05-07 15:57 | 50.82130 | 10.18451 | 31139 ft | 448 kts | 212° |
| 2026-05-07 15:58 | 50.79617 | 10.15549 | 30267 ft | 448 kts | 221° |
| 2026-05-07 15:58 | 50.77440 | 10.12025 | 29234 ft | 449 kts | 231° |
| 2026-05-07 15:58 | 50.75662 | 10.07977 | 28211 ft | 449 kts | 241° |
| 2026-05-07 15:58 | 50.74226 | 10.03624 | 27433 ft | 444 kts | 243° |
| 2026-05-07 15:59 | 50.72826 | 9.99312 | 26662 ft | 440 kts | 243° |
| 2026-05-07 15:59 | 50.71463 | 9.95090 | 25947 ft | 436 kts | 243° |
| 2026-05-07 15:59 | 50.70101 | 9.90841 | 25248 ft | 432 kts | 243° |
| 2026-05-07 15:59 | 50.68756 | 9.86630 | 24560 ft | 428 kts | 243° |
| 2026-05-07 16:00 | 50.67423 | 9.82464 | 23896 ft | 424 kts | 243° |
| 2026-05-07 16:00 | 50.66111 | 9.78384 | 23695 ft | 409 kts | 243° |
| 2026-05-07 16:00 | 50.64752 | 9.74547 | 23560 ft | 392 kts | 236° |
| 2026-05-07 16:00 | 50.63128 | 9.71206 | 23418 ft | 377 kts | 228° |
| 2026-05-07 16:01 | 50.61285 | 9.68370 | 23274 ft | 364 kts | 220° |
| 2026-05-07 16:01 | 50.59292 | 9.66035 | 23112 ft | 352 kts | 213° |
| 2026-05-07 16:01 | 50.57202 | 9.64200 | 22780 ft | 346 kts | 206° |
| 2026-05-07 16:01 | 50.54975 | 9.62823 | 22348 ft | 343 kts | 197° |
| 2026-05-07 16:02 | 50.52681 | 9.61896 | 21625 ft | 339 kts | 194° |
| 2026-05-07 16:02 | 50.50397 | 9.61067 | 20865 ft | 336 kts | 194° |
| 2026-05-07 16:02 | 50.48128 | 9.60259 | 20141 ft | 332 kts | 194° |
| 2026-05-07 16:02 | 50.45885 | 9.59470 | 19449 ft | 329 kts | 194° |
| 2026-05-07 16:03 | 50.43655 | 9.58693 | 18785 ft | 326 kts | 194° |
| 2026-05-07 16:03 | 50.41450 | 9.57932 | 18108 ft | 323 kts | 194° |
| 2026-05-07 16:03 | 50.39261 | 9.57180 | 17385 ft | 321 kts | 194° |
| 2026-05-07 16:03 | 50.37094 | 9.56436 | 16706 ft | 318 kts | 194° |
| 2026-05-07 16:04 | 50.34942 | 9.55698 | 16035 ft | 315 kts | 194° |
| 2026-05-07 16:04 | 50.32805 | 9.54967 | 15402 ft | 313 kts | 194° |
| 2026-05-07 16:04 | 50.30690 | 9.54242 | 14792 ft | 310 kts | 194° |
| 2026-05-07 16:04 | 50.28616 | 9.53536 | 14191 ft | 308 kts | 194° |
| 2026-05-07 16:05 | 50.26531 | 9.52826 | 13576 ft | 306 kts | 194° |
| 2026-05-07 16:05 | 50.24461 | 9.52121 | 12913 ft | 303 kts | 194° |
| 2026-05-07 16:05 | 50.22411 | 9.51418 | 12272 ft | 300 kts | 194° |
| 2026-05-07 16:05 | 50.20382 | 9.50717 | 11665 ft | 298 kts | 194° |
| 2026-05-07 16:06 | 50.18368 | 9.50017 | 11045 ft | 295 kts | 194° |
| 2026-05-07 16:06 | 50.16375 | 9.49322 | 10439 ft | 293 kts | 194° |
| 2026-05-07 16:06 | 50.14380 | 9.48621 | 10080 ft | 292 kts | 194° |
| 2026-05-07 16:06 | 50.12403 | 9.47923 | 9723 ft | 290 kts | 194° |
| 2026-05-07 16:07 | 50.10466 | 9.47240 | 9370 ft | 288 kts | 194° |
| 2026-05-07 16:07 | 50.08515 | 9.46557 | 9002 ft | 286 kts | 194° |
| 2026-05-07 16:07 | 50.06694 | 9.45421 | 8619 ft | 280 kts | 217° |
| 2026-05-07 16:07 | 50.05422 | 9.43206 | 8251 ft | 274 kts | 245° |
| 2026-05-07 16:08 | 50.04972 | 9.40390 | 7874 ft | 268 kts | 272° |
| 2026-05-07 16:08 | 50.05431 | 9.37625 | 7478 ft | 265 kts | 300° |
| 2026-05-07 16:08 | 50.06573 | 9.35394 | 7105 ft | 264 kts | 313° |
| 2026-05-07 16:08 | 50.07851 | 9.33343 | 7032 ft | 264 kts | 314° |
| 2026-05-07 16:09 | 50.09143 | 9.31306 | 6926 ft | 263 kts | 314° |
| 2026-05-07 16:09 | 50.10431 | 9.29283 | 6531 ft | 262 kts | 314° |
| 2026-05-07 16:09 | 50.11716 | 9.27275 | 6144 ft | 261 kts | 314° |
| 2026-05-07 16:09 | 50.13136 | 9.25551 | 5734 ft | 261 kts | 334° |
| 2026-05-07 16:10 | 50.14830 | 9.24674 | 5388 ft | 258 kts | 343° |
| 2026-05-07 16:10 | 50.16525 | 9.23975 | 5259 ft | 246 kts | 344° |
| 2026-05-07 16:10 | 50.18144 | 9.23330 | 5136 ft | 235 kts | 344° |
| 2026-05-07 16:10 | 50.19621 | 9.22406 | 5027 ft | 226 kts | 321° |
| 2026-05-07 16:11 | 50.20510 | 9.20527 | 4997 ft | 211 kts | 287° |
| 2026-05-07 16:11 | 50.20516 | 9.18309 | 5006 ft | 207 kts | 252° |
| 2026-05-07 16:11 | 50.19713 | 9.16441 | 5005 ft | 211 kts | 228° |
| 2026-05-07 16:11 | 50.18653 | 9.14861 | 4991 ft | 210 kts | 225° |
| 2026-05-07 16:12 | 50.17566 | 9.13334 | 4794 ft | 210 kts | 224° |
| 2026-05-07 16:12 | 50.16588 | 9.11700 | 4563 ft | 207 kts | 242° |
| 2026-05-07 16:12 | 50.16008 | 9.09658 | 4313 ft | 206 kts | 251° |
| 2026-05-07 16:12 | 50.15517 | 9.07564 | 4077 ft | 206 kts | 252° |
| 2026-05-07 16:13 | 50.15029 | 9.05460 | 3994 ft | 207 kts | 252° |
| 2026-05-07 16:13 | 50.14539 | 9.03356 | 4006 ft | 207 kts | 252° |
| 2026-05-07 16:13 | 50.14047 | 9.01246 | 4004 ft | 207 kts | 252° |
| 2026-05-07 16:13 | 50.13555 | 8.99139 | 4003 ft | 207 kts | 252° |
| 2026-05-07 16:14 | 50.13063 | 8.97034 | 4008 ft | 207 kts | 252° |
| 2026-05-07 16:14 | 50.12570 | 8.94929 | 4009 ft | 207 kts | 252° |
| 2026-05-07 16:14 | 50.12077 | 8.92826 | 4017 ft | 207 kts | 252° |
| 2026-05-07 16:14 | 50.11588 | 8.90740 | 4012 ft | 200 kts | 252° |
| 2026-05-07 16:15 | 50.11132 | 8.88805 | 4026 ft | 181 kts | 252° |
| 2026-05-07 16:15 | 50.10713 | 8.87019 | 4017 ft | 175 kts | 252° |
| 2026-05-07 16:15 | 50.10295 | 8.85238 | 3945 ft | 176 kts | 252° |
| 2026-05-07 16:15 | 50.09876 | 8.83457 | 3761 ft | 175 kts | 252° |
| 2026-05-07 16:16 | 50.09458 | 8.81685 | 3546 ft | 174 kts | 252° |
| 2026-05-07 16:16 | 50.09041 | 8.79914 | 3321 ft | 174 kts | 252° |
| 2026-05-07 16:16 | 50.08622 | 8.78138 | 3091 ft | 175 kts | 252° |
| 2026-05-07 16:16 | 50.08202 | 8.76357 | 2854 ft | 175 kts | 252° |
| 2026-05-07 16:17 | 50.07781 | 8.74576 | 2612 ft | 175 kts | 252° |
| 2026-05-07 16:17 | 50.07359 | 8.72795 | 2376 ft | 176 kts | 252° |
| 2026-05-07 16:17 | 50.06938 | 8.71014 | 2151 ft | 175 kts | 251° |
| 2026-05-07 16:17 | 50.06524 | 8.69268 | 1905 ft | 167 kts | 252° |
| 2026-05-07 16:18 | 50.06133 | 8.67645 | 1690 ft | 157 kts | 251° |
| 2026-05-07 16:18 | 50.05765 | 8.66102 | 1499 ft | 149 kts | 253° |
| 2026-05-07 16:18 | 50.05429 | 8.64639 | 1284 ft | 140 kts | 252° |
| 2026-05-07 16:18 | 50.05100 | 8.63252 | 1068 ft | 133 kts | 251° |
| 2026-05-07 16:19 | 50.04780 | 8.61916 | 864 ft | 130 kts | 250° |
| 2026-05-07 16:19 | 50.04469 | 8.60595 | 684 ft | 129 kts | 249° |
| 2026-05-07 16:19 | 50.04154 | 8.59287 | 502 ft | 129 kts | 249° |
| 2026-05-07 16:19 | 50.03844 | 8.57991 | 369 ft | 123 kts | 249° |
| 2026-05-07 16:20 | 50.03597 | 8.56940 | 353 ft | 79 kts | 250° |
| 2026-05-07 16:20 | 50.03459 | 8.56353 | 354 ft | 37 kts | 252° |
| 2026-05-07 16:20 | 50.03441 | 8.56036 | 348 ft | 28 kts | 276° |
| 2026-05-07 16:20 | 50.03463 | 8.55820 | 353 ft | 18 kts | 279° |
| 2026-05-07 16:21 | 50.03481 | 8.55655 | 347 ft | 9 kts | 279° |
| 2026-05-07 16:21 | 50.03491 | 8.55561 | 345 ft | 7 kts | 279° |
| 2026-05-07 16:21 | 50.03493 | 8.55499 | 353 ft | 5 kts | 266° |
| 2026-05-07 16:21 | 50.03485 | 8.55445 | 349 ft | 6 kts | 252° |
| 2026-05-07 16:22 | 50.03461 | 8.55343 | 348 ft | 13 kts | 249° |
| 2026-05-07 16:22 | 50.03427 | 8.55198 | 351 ft | 16 kts | 250° |
| 2026-05-07 16:22 | 50.03390 | 8.55040 | 352 ft | 14 kts | 257° |
| 2026-05-07 16:22 | 50.03412 | 8.54911 | 348 ft | 9 kts | 294° |
| 2026-05-07 16:23 | 50.03427 | 8.54871 | 348 ft | 1 kts | 307° |
| 2026-05-07 16:23 | 50.03429 | 8.54868 | 347 ft | 0 kts | 311° |
| 2026-05-07 16:24 | 50.03429 | 8.54867 | 347 ft | 0 kts | 311° |
| 2026-05-07 16:25 | 50.03467 | 8.54837 | 346 ft | 11 kts | 340° |
| 2026-05-07 16:25 | 50.03535 | 8.54799 | 348 ft | 12 kts | 340° |
| 2026-05-07 16:25 | 50.03624 | 8.54747 | 351 ft | 12 kts | 339° |
| 2026-05-07 16:25 | 50.03681 | 8.54715 | 352 ft | 7 kts | 342° |
| 2026-05-07 16:26 | 50.03751 | 8.54739 | 354 ft | 13 kts | 43° |
| 2026-05-07 16:26 | 50.03789 | 8.54865 | 350 ft | 17 kts | 69° |
| 2026-05-07 16:26 | 50.03841 | 8.55082 | 351 ft | 23 kts | 70° |
| 2026-05-07 16:26 | 50.03900 | 8.55327 | 356 ft | 23 kts | 69° |
| 2026-05-07 16:27 | 50.03957 | 8.55568 | 354 ft | 25 kts | 69° |
| 2026-05-07 16:27 | 50.04013 | 8.55804 | 358 ft | 18 kts | 70° |
| 2026-05-07 16:27 | 50.04033 | 8.55885 | 354 ft | 2 kts | 69° |
| 2026-05-07 16:27 | 50.04034 | 8.55892 | 353 ft | 0 kts | 69° |
| 2026-05-07 16:28 | 50.04036 | 8.55898 | 352 ft | 4 kts | 69° |
| 2026-05-07 16:28 | 50.04065 | 8.55965 | 355 ft | 8 kts | 31° |
| 2026-05-07 16:29 | 50.04117 | 8.55957 | 358 ft | 8 kts | 340° |
| 2026-05-07 16:29 | 50.04161 | 8.55932 | 354 ft | 3 kts | 339° |
| 2026-05-07 16:29 | 50.04163 | 8.55931 | 354 ft | 0 kts | 339° |
| 2026-05-07 16:30 | 50.04165 | 8.55930 | 357 ft | 2 kts | 340° |
| 2026-05-07 16:30 | 50.04211 | 8.55916 | 353 ft | 10 kts | 7° |
| 2026-05-07 16:30 | 50.04251 | 8.55989 | 356 ft | 9 kts | 69° |
| 2026-05-07 16:30 | 50.04292 | 8.56070 | 359 ft | 9 kts | 19° |
| 2026-05-07 16:31 | 50.04351 | 8.56050 | 357 ft | 9 kts | 339° |
| 2026-05-07 16:31 | 50.04409 | 8.56030 | 361 ft | 9 kts | 7° |
| 2026-05-07 16:31 | 50.04456 | 8.56130 | 357 ft | 14 kts | 69° |
| 2026-05-07 16:31 | 50.04489 | 8.56272 | 358 ft | 14 kts | 70° |
| 2026-05-07 16:32 | 50.04523 | 8.56404 | 361 ft | 12 kts | 59° |
| 2026-05-07 16:32 | 50.04587 | 8.56467 | 360 ft | 11 kts | 25° |
| 2026-05-07 16:32 | 50.04604 | 8.56540 | 358 ft | 8 kts | 111° |
| 2026-05-07 16:32 | 50.04583 | 8.56610 | 363 ft | 5 kts | 115° |
| 2026-05-07 16:33 | 50.04579 | 8.56625 | 359 ft | 0 kts | 115° |
| 2026-05-07 16:41 | 50.04579 | 8.56626 | 356 ft | 0 kts | 115° |